createdAt,value
2022-12-14T00:01:59.036Z,97270.63
2022-12-14T00:04:31.792Z,97267.43
2022-12-14T00:07:04.208Z,97267.98
2022-12-14T00:09:36.805Z,97269.30
2022-12-14T00:12:12.038Z,97269.02
2022-12-14T00:14:44.697Z,97270.56
2022-12-14T00:17:18.806Z,97277.14
2022-12-14T00:19:51.999Z,97285.42
2022-12-14T00:22:24.990Z,97286.27
2022-12-14T00:24:58.078Z,97283.01
2022-12-14T00:27:30.558Z,97284.31
2022-12-14T00:30:03.337Z,97282.43
2022-12-14T00:32:37.546Z,97284.39
2022-12-14T00:35:12.438Z,97283.09
2022-12-14T00:37:45.248Z,97283.95
2022-12-14T00:40:22.377Z,97287.32
2022-12-14T00:42:54.690Z,97282.61
2022-12-14T00:45:27.568Z,97273.95
2022-12-14T00:48:00.119Z,97277.25
2022-12-14T00:50:32.865Z,97278.99
2022-12-14T00:53:05.505Z,97277.20
2022-12-14T00:55:42.957Z,97275.65
2022-12-14T00:58:17.197Z,97268.71
2022-12-14T01:00:59.522Z,97269.20
2022-12-14T01:03:33.118Z,97258.96
2022-12-14T01:06:04.329Z,97257.85
2022-12-14T01:08:36.881Z,97260.34
2022-12-14T01:11:11.145Z,97263.70
2022-12-14T01:13:45.069Z,97262.36
2022-12-14T01:16:23.949Z,97260.02
2022-12-14T01:18:56.477Z,97251.23
2022-12-14T01:21:29.749Z,97251.20
2022-12-14T01:24:22.179Z,97255.44
2022-12-14T01:27:08.096Z,97251.98
2022-12-14T01:29:40.598Z,97254.63
2022-12-14T01:32:13.286Z,97248.11
2022-12-14T01:34:45.617Z,97247.41
2022-12-14T01:37:18.571Z,97245.27
2022-12-14T01:39:51.699Z,97249.11
2022-12-14T01:42:25.857Z,97247.75
2022-12-14T01:45:00.438Z,97243.01
2022-12-14T01:47:43.648Z,97241.67
2022-12-14T01:50:22.408Z,97238.48
2022-12-14T01:53:01.149Z,97239.33
2022-12-14T01:55:38.328Z,97241.60
2022-12-14T01:58:16.348Z,97246.90
2022-12-14T02:00:51.666Z,97244.83
2022-12-14T02:03:28.659Z,97245.70
2022-12-14T02:06:05.708Z,97243.04
2022-12-14T02:08:41.152Z,97242.59
2022-12-14T02:11:14.348Z,97234.52
2022-12-14T02:13:48.759Z,97236.35
2022-12-14T02:16:22.487Z,97226.52
2022-12-14T02:18:53.205Z,97224.98
2022-12-14T02:21:38.199Z,97232.84
2022-12-14T02:24:35.507Z,97229.88
2022-12-14T02:27:25.000Z,97227.13
2022-12-14T02:30:12.637Z,97223.43
2022-12-14T02:33:11.269Z,97221.27
2022-12-14T02:35:49.877Z,97223.20
2022-12-14T02:38:42.557Z,97217.06
2022-12-14T02:41:19.928Z,97219.23
2022-12-14T02:44:03.598Z,97215.82
2022-12-14T02:46:37.484Z,97216.92
2022-12-14T02:49:17.428Z,97209.01
2022-12-14T02:51:58.198Z,97206.99
2022-12-14T02:54:36.859Z,97205.95
2022-12-14T02:57:14.811Z,97204.58
2022-12-14T02:59:48.718Z,97205.84
2022-12-14T03:02:22.240Z,97203.98
2022-12-14T03:04:52.877Z,97200.57
2022-12-14T03:07:37.452Z,97197.59
2022-12-14T03:10:21.878Z,97197.37
2022-12-14T03:13:01.179Z,97193.53
2022-12-14T03:15:34.939Z,97193.15
2022-12-14T03:18:13.159Z,97193.55
2022-12-14T03:20:50.003Z,97192.91
2022-12-14T03:23:29.570Z,97185.74
2022-12-14T03:26:08.749Z,97183.84
2022-12-14T03:28:47.135Z,97181.39
2022-12-14T03:31:23.262Z,97181.56
2022-12-14T03:34:00.137Z,97184.92
2022-12-14T03:36:37.508Z,97186.69
2022-12-14T03:39:13.998Z,97188.82
2022-12-14T03:41:57.118Z,97183.44
2022-12-14T03:44:48.769Z,97186.39
2022-12-14T03:47:36.170Z,97184.41
2022-12-14T03:50:16.367Z,97186.61
2022-12-14T03:52:57.623Z,97185.95
2022-12-14T03:55:35.820Z,97185.81
2022-12-14T03:58:19.872Z,97186.91
2022-12-14T04:00:57.403Z,97191.41
2022-12-14T04:03:41.449Z,97195.82
2022-12-14T04:06:23.325Z,97199.77
2022-12-14T04:09:04.682Z,97200.62
2022-12-14T04:12:00.779Z,97205.63
2022-12-14T04:14:55.427Z,97201.81
2022-12-14T04:17:48.938Z,97198.04
2022-12-14T04:20:26.037Z,97197.77
2022-12-14T04:23:04.719Z,97195.74
2022-12-14T04:25:58.999Z,97193.55
2022-12-14T04:28:54.208Z,97190.55
2022-12-14T04:31:31.518Z,97191.64
2022-12-14T04:34:07.998Z,97190.45
2022-12-14T04:36:43.999Z,97189.52
2022-12-14T04:39:20.418Z,97185.19
2022-12-14T04:41:57.507Z,97186.35
2022-12-14T04:44:34.319Z,97180.11
2022-12-14T04:47:10.259Z,97177.54
2022-12-14T04:49:46.196Z,97178.36
2022-12-14T04:52:26.667Z,97175.41
2022-12-14T04:55:07.037Z,97170.66
2022-12-14T04:57:46.937Z,97165.58
2022-12-14T05:00:20.501Z,97167.83
2022-12-14T05:03:10.978Z,97162.21
2022-12-14T05:05:57.606Z,97155.66
2022-12-14T05:08:47.703Z,97146.31
2022-12-14T05:14:25.509Z,97139.67
2022-12-14T05:17:00.458Z,97139.80
2022-12-14T05:19:36.348Z,97138.20
2022-12-14T05:22:10.089Z,97137.05
2022-12-14T05:24:40.636Z,97130.71
2022-12-14T05:27:13.523Z,97125.63
2022-12-14T05:29:46.188Z,97123.52
2022-12-14T05:32:20.389Z,97124.39
2022-12-14T05:35:15.026Z,97122.11
2022-12-14T05:37:49.376Z,97118.65
2022-12-14T05:40:24.327Z,97117.33
2022-12-14T05:43:07.894Z,97118.52
2022-12-14T05:45:40.692Z,97120.92
2022-12-14T05:48:13.565Z,97119.48
2022-12-14T05:50:46.178Z,97117.75
2022-12-14T05:53:19.240Z,97111.25
2022-12-14T05:55:53.218Z,97101.75
2022-12-14T05:58:25.927Z,97102.47
2022-12-14T06:01:03.337Z,97112.60
2022-12-14T06:03:36.679Z,97118.02
2022-12-14T06:06:12.207Z,97122.11
2022-12-14T06:08:47.957Z,97122.55
2022-12-14T06:11:24.739Z,97124.42
2022-12-14T06:13:57.238Z,97123.67
2022-12-14T06:16:29.882Z,97120.46
2022-12-14T06:19:06.288Z,97121.85
2022-12-14T06:21:40.838Z,97124.33
2022-12-14T06:24:15.837Z,97132.77
2022-12-14T06:26:50.089Z,97130.42
2022-12-14T06:29:24.266Z,97126.48
2022-12-14T06:31:57.100Z,97125.50
2022-12-14T06:34:34.099Z,97126.72
2022-12-14T06:37:10.746Z,97126.50
2022-12-14T06:39:43.715Z,97126.13
2022-12-14T06:42:16.045Z,97127.11
2022-12-14T06:44:48.728Z,97128.65
2022-12-14T06:47:21.196Z,97128.98
2022-12-14T06:49:55.668Z,97125.41
2022-12-14T06:52:28.268Z,97123.92
2022-12-14T06:55:00.997Z,97120.60
2022-12-14T06:57:33.864Z,97111.64
2022-12-14T07:00:07.496Z,97113.52
2022-12-14T07:02:40.427Z,97109.42
2022-12-14T07:05:15.108Z,97111.92
2022-12-14T07:07:47.909Z,97111.42
2022-12-14T07:10:22.036Z,97107.36
2022-12-14T07:12:54.508Z,97104.66
2022-12-14T07:15:27.326Z,97103.10
2022-12-14T07:17:59.851Z,97105.30
2022-12-14T07:20:32.580Z,97103.73
2022-12-14T07:23:05.049Z,97106.55
2022-12-14T07:25:37.768Z,97106.50
2022-12-14T07:28:11.087Z,97099.80
2022-12-14T07:30:43.686Z,97097.77
2022-12-14T07:33:17.027Z,97095.86
2022-12-14T07:35:47.960Z,97093.55
2022-12-14T07:38:20.697Z,97095.20
2022-12-14T07:40:53.956Z,97092.77
2022-12-14T07:43:26.547Z,97096.48
2022-12-14T07:46:03.044Z,97090.45
2022-12-14T07:48:36.496Z,97084.44
2022-12-14T07:51:14.173Z,97083.59
2022-12-14T07:53:47.191Z,97078.04
2022-12-14T07:56:22.007Z,97076.25
2022-12-14T07:58:56.668Z,97076.20
2022-12-14T08:01:31.603Z,97073.39
2022-12-14T08:04:06.639Z,97069.68
2022-12-14T08:06:40.445Z,97072.27
2022-12-14T08:09:12.128Z,97063.27
2022-12-14T08:11:44.777Z,97060.01
2022-12-14T08:14:19.625Z,97061.27
2022-12-14T08:16:52.978Z,97059.41
2022-12-14T08:19:26.877Z,97062.95
2022-12-14T08:21:59.958Z,97067.18
2022-12-14T08:24:32.379Z,97066.10
2022-12-14T08:27:04.878Z,97060.75
2022-12-14T08:29:37.588Z,97053.05
2022-12-14T08:32:10.777Z,97044.75
2022-12-14T08:34:43.704Z,97043.19
2022-12-14T08:37:16.253Z,97048.57
2022-12-14T08:39:49.459Z,97048.17
2022-12-14T08:42:22.919Z,97049.30
2022-12-14T08:44:56.217Z,97050.15
2022-12-14T08:47:28.969Z,97048.08
2022-12-14T08:50:04.140Z,97051.01
2022-12-14T08:52:37.686Z,97052.29
2022-12-14T08:55:11.129Z,97043.51
2022-12-14T08:57:42.532Z,97043.70
2022-12-14T09:00:17.240Z,97046.73
2022-12-14T09:02:54.572Z,97053.61
2022-12-14T09:05:28.034Z,97055.64
2022-12-14T09:08:00.726Z,97053.23
2022-12-14T09:10:33.370Z,97044.76
2022-12-14T09:13:06.019Z,97047.55
2022-12-14T09:15:38.655Z,97041.42
2022-12-14T09:18:13.125Z,97034.12
2022-12-14T09:20:46.948Z,97027.26
2022-12-14T09:23:23.097Z,97031.63
2022-12-14T09:26:01.500Z,97030.30
2022-12-14T09:28:35.488Z,97024.73
2022-12-14T09:31:11.800Z,97021.75
2022-12-14T09:33:45.258Z,97011.98
2022-12-14T09:36:19.161Z,97012.00
2022-12-14T09:38:55.568Z,97008.65
2022-12-14T09:41:44.549Z,97001.88
2022-12-14T09:44:27.331Z,96995.35
2022-12-14T09:47:05.446Z,96994.33
2022-12-14T09:49:43.708Z,96991.05
2022-12-14T09:52:20.145Z,96988.32
2022-12-14T09:54:53.515Z,96985.65
2022-12-14T09:57:30.588Z,96984.52
2022-12-14T10:00:03.301Z,96977.48
2022-12-14T10:03:06.375Z,96969.57
2022-12-14T10:05:56.189Z,96964.54
2022-12-14T10:08:33.679Z,96967.06
2022-12-14T10:11:12.278Z,96964.34
2022-12-14T10:13:57.777Z,96968.17
2022-12-14T10:16:43.845Z,96966.45
2022-12-14T10:19:33.515Z,96958.45
2022-12-14T10:22:13.249Z,96960.91
2022-12-14T10:24:47.888Z,96955.36
2022-12-14T10:27:25.581Z,96957.76
2022-12-14T10:30:04.414Z,96960.15
2022-12-14T10:32:40.268Z,96950.90
2022-12-14T10:35:21.558Z,96951.98
2022-12-14T10:38:02.352Z,96951.89
2022-12-14T10:40:36.998Z,96948.98
2022-12-14T10:43:36.498Z,96941.73
2022-12-14T10:46:20.599Z,96936.55
2022-12-14T10:49:02.739Z,96929.73
2022-12-14T10:51:41.637Z,96923.10
2022-12-14T10:54:27.227Z,96919.87
2022-12-14T10:56:59.979Z,96921.48
2022-12-14T10:59:40.565Z,96921.55
2022-12-14T11:02:21.438Z,96921.48
2022-12-14T11:04:57.569Z,96924.40
2022-12-14T11:07:40.887Z,96924.23
2022-12-14T11:10:21.469Z,96917.30
2022-12-14T11:13:18.078Z,96909.69
2022-12-14T11:15:53.401Z,96902.50
2022-12-14T11:18:33.001Z,96896.04
2022-12-14T11:21:08.936Z,96897.32
2022-12-14T11:23:45.619Z,96892.01
2022-12-14T11:26:28.568Z,96897.78
2022-12-14T11:29:03.438Z,96896.69
2022-12-14T11:31:41.636Z,96893.11
2022-12-14T11:34:27.930Z,96887.23
2022-12-14T11:37:15.827Z,96886.25
2022-12-14T11:39:54.455Z,96881.66
2022-12-14T11:42:28.207Z,96884.54
2022-12-14T11:45:37.133Z,96882.30
2022-12-14T11:48:23.128Z,96872.96
2022-12-14T11:51:09.706Z,96872.48
2022-12-14T11:53:43.201Z,96868.05
2022-12-14T11:56:19.332Z,96862.52
2022-12-14T11:58:55.644Z,96862.73
2022-12-14T12:01:30.172Z,96856.48
2022-12-14T12:04:03.697Z,96856.36
2022-12-14T12:06:36.988Z,96851.25
2022-12-14T12:09:28.788Z,96849.86
2022-12-14T12:12:02.336Z,96849.05
2022-12-14T12:14:40.160Z,96846.27
2022-12-14T12:17:31.079Z,96848.16
2022-12-14T12:20:04.647Z,96848.27
2022-12-14T12:22:39.390Z,96843.17
2022-12-14T12:25:30.857Z,96839.48
2022-12-14T12:28:14.884Z,96844.19
2022-12-14T12:30:53.718Z,96835.66
2022-12-14T12:33:34.067Z,96818.95
2022-12-14T12:36:08.996Z,96808.84
2022-12-14T12:38:50.671Z,96807.86
2022-12-14T12:41:32.328Z,96803.42
2022-12-14T12:44:18.351Z,96797.07
2022-12-14T12:47:26.539Z,96792.87
2022-12-14T12:50:03.139Z,96777.39
2022-12-14T12:52:41.978Z,96773.59
2022-12-14T12:55:20.876Z,96768.19
2022-12-14T12:57:56.608Z,96762.42
2022-12-14T13:00:31.761Z,96755.25
2022-12-14T13:03:09.494Z,96756.08
2022-12-14T13:05:48.245Z,96753.98
2022-12-14T13:08:28.974Z,96752.83
2022-12-14T13:11:25.776Z,96750.58
2022-12-14T13:14:03.780Z,96746.25
2022-12-14T13:16:40.039Z,96744.70
2022-12-14T13:22:20.348Z,96748.36
2022-12-14T13:24:59.500Z,96748.41
2022-12-14T13:27:59.269Z,96737.80
2022-12-14T13:31:02.090Z,96734.88
2022-12-14T13:33:55.390Z,96722.73
2022-12-14T13:36:50.737Z,96721.29
2022-12-14T13:39:57.635Z,96715.95
2022-12-14T13:42:43.559Z,96715.92
2022-12-14T13:45:22.327Z,96711.30
2022-12-14T13:47:57.137Z,96705.09
2022-12-14T13:50:36.720Z,96702.09
2022-12-14T13:53:20.115Z,96696.33
2022-12-14T13:55:56.248Z,96692.98
2022-12-14T13:58:35.702Z,96678.27
2022-12-14T14:01:09.830Z,96670.29
2022-12-14T14:03:52.570Z,96661.38
2022-12-14T14:06:42.591Z,96650.30
2022-12-14T14:09:59.348Z,96640.93
2022-12-14T14:12:41.309Z,96633.56
2022-12-14T14:15:52.040Z,96632.14
2022-12-14T14:18:34.394Z,96620.40
2022-12-14T14:21:36.188Z,96605.65
2022-12-14T14:24:29.456Z,96599.02
2022-12-14T14:27:19.048Z,96594.34
2022-12-14T14:29:53.215Z,96590.13
2022-12-14T14:32:40.023Z,96583.40
2022-12-14T14:35:30.599Z,96590.58
2022-12-14T14:38:24.086Z,96586.05
2022-12-14T14:41:17.769Z,96584.77
2022-12-14T14:43:55.444Z,96587.55
2022-12-14T14:46:38.926Z,96581.19
2022-12-14T14:49:24.858Z,96575.52
2022-12-14T14:51:57.729Z,96574.61
2022-12-14T14:58:01.377Z,96555.73
2022-12-14T15:00:42.071Z,96542.27
2022-12-14T15:03:19.894Z,96528.80
2022-12-14T15:05:53.744Z,96521.48
2022-12-14T15:08:34.768Z,96508.98
2022-12-14T15:11:17.132Z,96505.87
2022-12-14T15:13:56.414Z,96500.17
2022-12-14T15:16:33.943Z,96498.48
2022-12-14T15:19:25.138Z,96510.23
2022-12-14T15:22:02.049Z,96513.48
2022-12-14T15:24:39.289Z,96505.75
2022-12-14T15:27:30.187Z,96502.20
2022-12-14T15:30:07.621Z,96504.20
2022-12-14T15:32:47.429Z,96494.23
2022-12-14T15:35:25.418Z,96486.66
2022-12-14T15:38:03.490Z,96484.77
2022-12-14T15:40:56.647Z,96482.41
2022-12-14T15:43:37.126Z,96480.89
2022-12-14T15:46:20.372Z,96484.95
2022-12-14T15:48:59.227Z,96488.62
2022-12-14T15:51:35.360Z,96482.42
2022-12-14T15:54:17.616Z,96477.55
2022-12-14T15:56:52.917Z,96476.88
2022-12-14T15:59:29.349Z,96467.82
2022-12-14T16:02:07.769Z,96467.16
2022-12-14T16:04:41.373Z,96470.45
2022-12-14T16:07:21.569Z,96465.79
2022-12-14T16:09:59.556Z,96460.91
2022-12-14T16:12:45.958Z,96455.64
2022-12-14T16:15:25.386Z,96445.64
2022-12-14T16:18:03.506Z,96442.46
2022-12-14T16:20:39.598Z,96434.32
2022-12-14T16:23:29.802Z,96443.56
2022-12-14T16:26:23.857Z,96437.20
2022-12-14T16:29:20.368Z,96437.10
2022-12-14T16:32:01.024Z,96420.47
2022-12-14T16:34:34.479Z,96414.00
2022-12-14T16:40:04.618Z,96408.34
2022-12-14T16:42:42.536Z,96408.94
2022-12-14T16:45:53.502Z,96406.41
2022-12-14T16:48:29.268Z,96400.20
2022-12-14T16:51:44.909Z,96400.58
2022-12-14T16:54:31.408Z,96391.48
2022-12-14T16:57:06.450Z,96399.14
2022-12-14T16:59:44.954Z,96399.02
2022-12-14T17:02:33.284Z,96393.46
2022-12-14T17:05:14.205Z,96392.47
2022-12-14T17:07:57.629Z,96389.61
2022-12-14T17:10:39.887Z,96387.27
2022-12-14T17:13:15.662Z,96384.08
2022-12-14T17:16:00.757Z,96379.98
2022-12-14T17:18:38.709Z,96379.30
2022-12-14T17:21:17.620Z,96381.34
2022-12-14T17:23:51.349Z,96386.73
2022-12-14T17:26:26.287Z,96386.19
2022-12-14T17:29:00.631Z,96385.84
2022-12-14T17:31:35.145Z,96386.73
2022-12-14T17:34:07.698Z,96384.38
2022-12-14T17:36:44.160Z,96383.39
2022-12-14T17:39:17.858Z,96371.54
2022-12-14T17:41:55.048Z,96376.31
2022-12-14T17:44:30.227Z,96376.55
2022-12-14T17:47:03.158Z,96379.62
2022-12-14T17:49:35.982Z,96387.24
2022-12-14T17:52:17.538Z,96383.11
2022-12-14T17:54:50.420Z,96381.04
2022-12-14T17:57:24.707Z,96375.45
2022-12-14T18:00:10.809Z,96370.44
2022-12-14T18:02:50.246Z,96368.58
2022-12-14T18:05:24.449Z,96361.21
2022-12-14T18:08:26.853Z,96360.90
2022-12-14T18:11:17.363Z,96353.41
2022-12-14T18:14:00.114Z,96354.26
2022-12-14T18:16:41.769Z,96348.05
2022-12-14T18:19:24.112Z,96334.53
2022-12-14T18:22:10.713Z,96326.28
2022-12-14T18:24:49.386Z,96324.92
2022-12-14T18:27:25.798Z,96327.92
2022-12-14T18:30:04.131Z,96327.65
2022-12-14T18:32:43.207Z,96333.23
2022-12-14T18:35:21.008Z,96338.95
2022-12-14T18:37:54.377Z,96334.13
2022-12-14T18:40:29.798Z,96329.69
2022-12-14T18:43:02.518Z,96321.10
2022-12-14T18:45:38.694Z,96321.42
2022-12-14T18:48:12.857Z,96317.88
2022-12-14T18:50:50.055Z,96309.09
2022-12-14T18:53:27.414Z,96308.23
2022-12-14T18:56:02.352Z,96302.15
2022-12-14T18:58:35.191Z,96298.27
2022-12-14T19:01:08.337Z,96297.28
2022-12-14T19:03:40.991Z,96294.40
2022-12-14T19:06:46.283Z,96282.24
2022-12-14T19:09:08.888Z,96278.21
2022-12-14T19:11:43.830Z,96268.04
2022-12-14T19:14:16.449Z,96259.58
2022-12-14T19:16:49.020Z,96259.73
2022-12-14T19:19:24.063Z,96253.65
2022-12-14T19:21:59.760Z,96252.36
2022-12-14T19:24:32.841Z,96253.69
2022-12-14T19:27:06.407Z,96252.70
2022-12-14T19:29:39.039Z,96251.86
2022-12-14T19:32:12.180Z,96254.05
2022-12-14T19:34:44.930Z,96247.45
2022-12-14T19:37:17.600Z,96240.91
2022-12-14T19:39:50.369Z,96237.34
2022-12-14T19:42:23.555Z,96237.70
2022-12-14T19:44:57.858Z,96230.96
2022-12-14T19:47:30.469Z,96226.39
2022-12-14T19:50:03.008Z,96217.61
2022-12-14T19:52:38.822Z,96210.02
2022-12-14T19:55:15.919Z,96202.45
2022-12-14T19:57:50.381Z,96206.34
2022-12-14T20:00:23.398Z,96213.77
2022-12-14T20:02:56.809Z,96205.99
2022-12-14T20:05:28.058Z,96201.11
2022-12-14T20:08:06.056Z,96205.16
2022-12-14T20:10:39.909Z,96205.02
2022-12-14T20:13:12.779Z,96207.88
2022-12-14T20:15:52.533Z,96207.00
2022-12-14T20:18:26.226Z,96207.17
2022-12-14T20:21:04.930Z,96205.98
2022-12-14T20:23:38.945Z,96210.03
2022-12-14T20:26:15.957Z,96200.75
2022-12-14T20:28:50.467Z,96200.92
2022-12-14T20:31:24.193Z,96189.77
2022-12-14T20:33:56.448Z,96210.19
2022-12-14T20:36:29.258Z,96205.80
2022-12-14T20:39:03.169Z,96207.63
2022-12-14T20:41:37.138Z,96201.41
2022-12-14T20:44:12.580Z,96201.08
2022-12-14T20:46:47.744Z,96198.54
2022-12-14T20:49:29.818Z,96201.08
2022-12-14T20:52:02.417Z,96198.88
2022-12-14T20:54:35.388Z,96194.33
2022-12-14T20:57:07.930Z,96192.83
2022-12-14T20:59:40.959Z,96201.95
2022-12-14T21:02:19.780Z,96205.33
2022-12-14T21:05:13.136Z,96196.71
2022-12-14T21:07:46.216Z,96195.70
2022-12-14T21:10:21.919Z,96199.25
2022-12-14T21:12:54.949Z,96199.60
2022-12-14T21:15:28.018Z,96201.11
2022-12-14T21:18:00.619Z,96202.99
2022-12-14T21:20:33.547Z,96206.91
2022-12-14T21:23:06.062Z,96211.13
2022-12-14T21:25:38.807Z,96201.84
2022-12-14T21:28:18.058Z,96204.73
2022-12-14T21:30:55.036Z,96196.46
2022-12-14T21:33:32.195Z,96197.48
2022-12-14T21:36:09.097Z,96195.45
2022-12-14T21:38:41.980Z,96201.02
2022-12-14T21:41:33.000Z,96202.58
2022-12-14T21:44:05.657Z,96204.10
2022-12-14T21:46:39.337Z,96207.14
2022-12-14T21:49:10.341Z,96209.68
2022-12-14T21:51:43.208Z,96210.02
2022-12-14T21:54:17.417Z,96207.35
2022-12-14T21:57:07.666Z,96203.80
2022-12-14T21:59:41.726Z,96204.14
2022-12-14T22:02:18.127Z,96208.88
2022-12-14T22:04:56.405Z,96210.73
2022-12-14T22:07:34.289Z,96215.96
2022-12-14T22:10:08.166Z,96215.98
2022-12-14T22:12:39.236Z,96218.51
2022-12-14T22:15:14.488Z,96210.39
2022-12-14T22:17:48.578Z,96206.84
2022-12-14T22:20:21.354Z,96213.94
2022-12-14T22:22:54.237Z,96204.14
2022-12-14T22:25:27.369Z,96199.74
2022-12-14T22:28:00.438Z,96195.52
2022-12-14T22:30:33.047Z,96193.49
2022-12-14T22:33:06.479Z,96201.44
2022-12-14T22:35:38.927Z,96186.23
2022-12-14T22:38:13.519Z,96207.52
2022-12-14T22:40:46.090Z,96186.73
2022-12-14T22:43:21.879Z,96193.80
2022-12-14T22:46:00.718Z,96185.38
2022-12-14T22:48:34.886Z,96173.19
2022-12-14T22:51:10.636Z,96178.27
2022-12-14T22:53:43.721Z,96186.89
2022-12-14T22:56:29.049Z,96189.27
2022-12-14T22:59:05.378Z,96188.43
2022-12-14T23:01:39.340Z,96181.34
2022-12-14T23:04:14.793Z,96175.08
2022-12-14T23:06:47.527Z,96167.81
2022-12-14T23:09:37.669Z,96168.98
2022-12-14T23:12:27.238Z,96167.13
2022-12-14T23:15:17.337Z,96166.80
2022-12-14T23:18:06.662Z,96168.98
2022-12-14T23:20:59.294Z,96175.23
2022-12-14T23:23:49.039Z,96179.32
2022-12-14T23:26:40.046Z,96179.80
2022-12-14T23:29:30.838Z,96178.28
2022-12-14T23:32:21.058Z,96186.23
2022-12-14T23:35:10.765Z,96186.75
2022-12-14T23:38:00.139Z,96183.88
2022-12-14T23:40:49.758Z,96187.93
2022-12-14T23:43:39.358Z,96194.54
2022-12-14T23:46:29.186Z,96190.14
2022-12-14T23:49:18.999Z,96185.06
2022-12-14T23:52:08.558Z,96193.35
2022-12-14T23:54:58.318Z,96186.58
2022-12-14T23:57:47.805Z,96189.28
